createdAt,value
2022-08-19T00:02:00.495Z,12.00
2022-08-19T00:04:31.952Z,13.75
2022-08-19T00:07:01.006Z,12.00
2022-08-19T00:09:31.298Z,11.50
2022-08-19T00:12:00.570Z,12.00
2022-08-19T00:14:32.650Z,13.25
2022-08-19T00:17:01.998Z,11.75
2022-08-19T00:19:31.373Z,8.75
2022-08-19T00:22:00.263Z,12.50
2022-08-19T00:24:30.490Z,11.75
2022-08-19T00:27:25.101Z,11.25
2022-08-19T00:29:52.644Z,9.00
2022-08-19T00:32:22.612Z,11.75
2022-08-19T00:34:54.444Z,11.00
2022-08-19T00:37:24.126Z,10.75
2022-08-19T00:39:54.100Z,10.50
2022-08-19T00:42:24.253Z,11.00
2022-08-19T00:44:52.915Z,9.00
2022-08-19T00:47:21.448Z,10.50
2022-08-19T00:49:53.129Z,10.75
2022-08-19T00:52:25.842Z,14.50
2022-08-19T00:54:55.736Z,15.75
2022-08-19T00:57:28.785Z,12.25
2022-08-19T01:00:02.689Z,11.75
2022-08-19T01:02:34.764Z,11.75
2022-08-19T01:05:06.956Z,10.50
2022-08-19T01:07:38.413Z,10.50
2022-08-19T01:10:11.665Z,12.25
2022-08-19T01:12:41.159Z,11.50
2022-08-19T01:15:12.355Z,9.75
2022-08-19T01:17:42.360Z,11.00
2022-08-19T01:20:13.731Z,9.75
2022-08-19T01:22:47.656Z,10.75
2022-08-19T01:25:18.380Z,11.25
2022-08-19T01:27:53.326Z,6.75
2022-08-19T01:30:26.252Z,12.75
2022-08-19T01:32:55.517Z,11.75
2022-08-19T01:35:27.852Z,11.50
2022-08-19T01:38:00.927Z,11.00
2022-08-19T01:40:31.754Z,11.75
2022-08-19T01:43:01.126Z,10.25
2022-08-19T01:45:31.524Z,12.25
2022-08-19T01:48:02.023Z,10.50
2022-08-19T01:50:32.700Z,13.25
2022-08-19T01:53:06.718Z,11.75
2022-08-19T01:55:40.971Z,12.00
2022-08-19T01:58:14.572Z,12.25
2022-08-19T02:00:44.891Z,10.50
2022-08-19T02:03:14.331Z,11.00
2022-08-19T02:05:44.331Z,12.75
2022-08-19T02:08:14.454Z,13.00
2022-08-19T02:10:45.023Z,14.00
2022-08-19T02:13:15.469Z,13.75
2022-08-19T02:15:44.136Z,11.75
2022-08-19T02:18:12.743Z,11.80
2022-08-19T02:20:42.693Z,11.00
2022-08-19T02:23:13.777Z,11.75
2022-08-19T02:25:48.878Z,11.50
2022-08-19T02:28:19.109Z,16.00
2022-08-19T02:30:49.531Z,19.25
2022-08-19T02:33:18.664Z,21.25
2022-08-19T02:35:48.382Z,14.50
2022-08-19T02:38:28.066Z,12.50
2022-08-19T02:41:01.337Z,11.80
2022-08-19T02:43:33.939Z,13.00
2022-08-19T02:46:04.348Z,11.75
2022-08-19T02:48:33.998Z,12.00
2022-08-19T02:51:02.714Z,12.75
2022-08-19T02:53:31.734Z,11.00
2022-08-19T02:56:01.584Z,11.75
2022-08-19T02:58:30.129Z,8.80
2022-08-19T03:00:59.514Z,10.75
2022-08-19T03:03:28.852Z,9.75
2022-08-19T03:06:08.494Z,10.00
2022-08-19T03:08:38.261Z,9.25
2022-08-19T03:11:08.476Z,9.50
2022-08-19T03:13:36.891Z,9.50
2022-08-19T03:16:07.835Z,10.00
2022-08-19T03:18:36.279Z,12.50
2022-08-19T03:21:05.092Z,14.25
2022-08-19T03:23:34.176Z,11.75
2022-08-19T03:26:16.639Z,13.50
2022-08-19T03:28:51.775Z,12.50
2022-08-19T03:31:44.610Z,14.50
2022-08-19T03:34:19.867Z,13.25
2022-08-19T03:36:49.365Z,12.75
2022-08-19T03:39:18.656Z,10.75
2022-08-19T03:41:50.006Z,13.25
2022-08-19T03:44:39.895Z,13.00
2022-08-19T03:47:08.804Z,13.75
2022-08-19T03:49:37.637Z,9.75
2022-08-19T03:52:08.620Z,12.75
2022-08-19T03:54:39.072Z,14.75
2022-08-19T03:57:08.709Z,13.75
2022-08-19T03:59:40.865Z,16.75
2022-08-19T04:02:11.819Z,13.00
2022-08-19T04:04:41.899Z,12.25
2022-08-19T04:07:11.948Z,20.00
2022-08-19T04:09:40.408Z,17.75
2022-08-19T04:12:10.153Z,19.00
2022-08-19T04:14:40.603Z,16.75
2022-08-19T04:17:09.136Z,17.50
2022-08-19T04:19:39.622Z,22.75
2022-08-19T04:22:08.879Z,23.00
2022-08-19T04:24:37.890Z,18.75
2022-08-19T04:27:07.556Z,15.25
2022-08-19T04:29:36.340Z,17.75
2022-08-19T04:32:09.397Z,17.50
2022-08-19T04:35:02.156Z,21.75
2022-08-19T04:37:35.261Z,26.50
2022-08-19T04:40:25.362Z,23.50
2022-08-19T04:42:54.859Z,23.75
2022-08-19T04:45:24.257Z,23.00
2022-08-19T04:48:27.474Z,22.00
2022-08-19T04:50:46.964Z,22.00
2022-08-19T04:53:15.466Z,19.00
2022-08-19T04:55:44.760Z,21.00
2022-08-19T04:58:13.417Z,19.25
2022-08-19T05:00:42.129Z,18.00
2022-08-19T05:03:12.428Z,19.50
2022-08-19T05:05:44.791Z,23.75
2022-08-19T05:08:15.389Z,21.75
2022-08-19T05:10:45.571Z,20.25
2022-08-19T05:13:14.082Z,17.25
2022-08-19T05:15:43.150Z,14.25
2022-08-19T05:18:30.554Z,12.25
2022-08-19T05:21:16.781Z,10.75
2022-08-19T05:23:46.072Z,10.00
2022-08-19T05:26:14.572Z,7.00
2022-08-19T05:28:43.027Z,11.00
2022-08-19T05:31:13.083Z,8.20
2022-08-19T05:33:42.858Z,10.25
2022-08-19T05:36:11.496Z,9.50
2022-08-19T05:38:40.119Z,9.60
2022-08-19T05:41:10.524Z,9.40
2022-08-19T05:43:39.528Z,13.25
2022-08-19T05:46:09.663Z,12.25
2022-08-19T05:48:38.185Z,10.00
2022-08-19T05:51:09.269Z,12.00
2022-08-19T05:53:38.251Z,11.75
2022-08-19T05:56:07.846Z,11.75
2022-08-19T05:58:36.804Z,10.50
2022-08-19T06:01:06.933Z,10.50
2022-08-19T06:03:35.612Z,11.25
2022-08-19T06:06:04.522Z,10.75
2022-08-19T06:08:35.135Z,12.00
2022-08-19T06:11:21.833Z,11.75
2022-08-19T06:13:59.469Z,11.00
2022-08-19T06:16:29.924Z,11.00
2022-08-19T06:19:01.259Z,10.25
2022-08-19T06:21:31.316Z,12.75
2022-08-19T06:24:01.834Z,11.75
2022-08-19T06:26:30.372Z,10.75
2022-08-19T06:28:59.422Z,11.75
2022-08-19T06:31:30.439Z,11.75
2022-08-19T06:33:58.851Z,11.75
2022-08-19T06:36:32.717Z,10.25
2022-08-19T06:39:04.440Z,11.75
2022-08-19T06:41:38.185Z,12.25
2022-08-19T06:44:13.296Z,11.00
2022-08-19T06:46:43.500Z,12.50
2022-08-19T06:49:15.134Z,12.50
2022-08-19T06:51:44.342Z,12.75
2022-08-19T06:54:19.461Z,14.25
2022-08-19T06:56:49.224Z,13.50
2022-08-19T06:59:21.040Z,12.00
2022-08-19T07:01:52.315Z,16.75
2022-08-19T07:04:23.404Z,15.25
2022-08-19T07:06:58.477Z,17.00
2022-08-19T07:09:28.833Z,16.25
2022-08-19T07:11:59.414Z,17.50
2022-08-19T07:14:29.859Z,16.50
2022-08-19T07:16:59.245Z,15.50
2022-08-19T07:19:29.444Z,14.75
2022-08-19T07:21:58.213Z,15.50
2022-08-19T07:24:30.283Z,16.25
2022-08-19T07:27:10.355Z,18.50
2022-08-19T07:29:43.996Z,16.25
2022-08-19T07:32:13.490Z,16.25
2022-08-19T07:34:42.244Z,15.25
2022-08-19T07:37:11.962Z,15.50
2022-08-19T07:39:42.040Z,16.00
2022-08-19T07:42:13.205Z,16.00
2022-08-19T07:44:48.257Z,18.25
2022-08-19T07:47:48.353Z,16.00
2022-08-19T07:50:12.160Z,16.75
2022-08-19T07:52:41.739Z,17.75
2022-08-19T07:55:40.012Z,17.25
2022-08-19T07:58:01.941Z,16.00
2022-08-19T08:00:32.165Z,16.00
2022-08-19T08:03:00.583Z,15.50
2022-08-19T08:05:46.939Z,14.50
2022-08-19T08:08:33.080Z,15.00
2022-08-19T08:11:03.427Z,13.25
2022-08-19T08:13:39.054Z,13.25
2022-08-19T08:16:10.244Z,12.50
2022-08-19T08:18:50.684Z,13.75
2022-08-19T08:21:21.839Z,13.50
2022-08-19T08:23:53.226Z,13.50
2022-08-19T08:26:24.810Z,14.50
2022-08-19T08:28:53.921Z,14.00
2022-08-19T08:31:23.128Z,13.50
2022-08-19T08:33:51.716Z,14.00
2022-08-19T08:36:20.403Z,12.25
2022-08-19T08:38:49.355Z,12.50
2022-08-19T08:41:33.868Z,11.25
2022-08-19T08:44:06.143Z,13.75
2022-08-19T08:46:41.972Z,12.50
2022-08-19T08:49:22.584Z,12.25
2022-08-19T08:52:00.120Z,10.75
2022-08-19T08:54:35.930Z,12.00
2022-08-19T08:57:09.430Z,10.25
2022-08-19T08:59:42.805Z,11.75
2022-08-19T09:02:11.361Z,11.75
2022-08-19T09:04:41.052Z,11.25
2022-08-19T09:07:35.283Z,11.25
2022-08-19T09:10:12.547Z,10.75
2022-08-19T09:12:51.003Z,12.50
2022-08-19T09:15:33.659Z,10.25
2022-08-19T09:18:07.506Z,11.00
2022-08-19T09:20:36.240Z,8.25
2022-08-19T09:23:10.495Z,10.25
2022-08-19T09:25:41.079Z,11.00
2022-08-19T09:28:15.247Z,10.00
2022-08-19T09:30:53.594Z,11.00
2022-08-19T09:33:23.437Z,11.50
2022-08-19T09:35:53.864Z,10.75
2022-08-19T09:38:23.148Z,10.75
2022-08-19T09:40:51.653Z,10.25
2022-08-19T09:43:32.941Z,10.25
2022-08-19T09:46:06.320Z,11.00
2022-08-19T09:48:35.214Z,11.75
2022-08-19T09:51:06.209Z,12.00
2022-08-19T09:53:34.716Z,11.75
2022-08-19T09:56:07.482Z,11.25
2022-08-19T09:58:39.201Z,14.75
2022-08-19T10:01:10.422Z,14.25
2022-08-19T10:03:39.226Z,13.75
2022-08-19T10:06:14.971Z,12.00
2022-08-19T10:08:50.244Z,13.75
2022-08-19T10:11:28.114Z,15.25
2022-08-19T10:14:08.030Z,15.50
2022-08-19T10:16:40.198Z,16.00
2022-08-19T10:19:10.230Z,13.50
2022-08-19T10:21:40.515Z,14.00
2022-08-19T10:24:09.557Z,16.00
2022-08-19T10:26:43.044Z,13.25
2022-08-19T10:29:12.806Z,13.00
2022-08-19T10:31:59.983Z,13.75
2022-08-19T10:34:31.297Z,14.00
2022-08-19T10:37:01.868Z,13.25
2022-08-19T10:39:32.780Z,11.00
2022-08-19T10:42:11.580Z,11.00
2022-08-19T10:44:40.483Z,10.50
2022-08-19T10:47:21.906Z,10.50
2022-08-19T10:50:13.752Z,10.00
2022-08-19T10:52:49.773Z,11.00
2022-08-19T10:55:39.960Z,10.75
2022-08-19T10:58:14.139Z,9.25
2022-08-19T11:00:44.330Z,10.75
2022-08-19T11:03:14.391Z,11.00
2022-08-19T11:05:42.978Z,10.00
2022-08-19T11:08:23.018Z,9.25
2022-08-19T11:11:00.231Z,9.25
2022-08-19T11:13:29.501Z,9.25
2022-08-19T11:16:07.415Z,10.75
2022-08-19T11:18:44.784Z,10.00
2022-08-19T11:21:15.532Z,9.00
2022-08-19T11:23:44.635Z,9.25
2022-08-19T11:26:13.160Z,8.25
2022-08-19T11:28:41.779Z,8.50
2022-08-19T11:31:13.030Z,8.25
2022-08-19T11:33:47.593Z,7.25
2022-08-19T11:36:17.517Z,10.00
2022-08-19T11:38:46.055Z,7.25
2022-08-19T11:41:14.537Z,9.50
2022-08-19T11:43:43.437Z,7.25
2022-08-19T11:46:18.610Z,8.00
2022-08-19T11:48:49.113Z,10.00
2022-08-19T11:51:22.510Z,10.75
2022-08-19T11:53:51.372Z,9.75
2022-08-19T11:56:20.902Z,9.00
2022-08-19T11:58:49.588Z,9.25
2022-08-19T12:01:21.036Z,9.00
2022-08-19T12:03:53.483Z,9.75
2022-08-19T12:06:29.530Z,9.00
2022-08-19T12:08:59.042Z,8.00
2022-08-19T12:11:28.553Z,10.25
2022-08-19T12:14:00.065Z,9.75
2022-08-19T12:16:31.535Z,11.00
2022-08-19T12:19:05.554Z,9.00
2022-08-19T12:21:37.127Z,8.00
2022-08-19T12:24:09.560Z,9.75
2022-08-19T12:26:53.373Z,12.25
2022-08-19T12:29:24.309Z,10.50
2022-08-19T12:31:53.263Z,10.75
2022-08-19T12:34:23.430Z,11.25
2022-08-19T12:36:52.146Z,12.25
2022-08-19T12:39:20.875Z,13.50
2022-08-19T12:41:54.104Z,12.50
2022-08-19T12:44:28.797Z,11.25
2022-08-19T12:47:00.979Z,12.25
2022-08-19T12:49:53.760Z,11.50
2022-08-19T12:52:23.120Z,12.00
2022-08-19T12:54:54.415Z,12.00
2022-08-19T12:57:32.577Z,11.25
2022-08-19T13:00:08.425Z,9.50
2022-08-19T13:02:38.883Z,10.75
2022-08-19T13:05:12.665Z,10.75
2022-08-19T13:07:44.667Z,8.25
2022-08-19T13:10:16.312Z,10.25
2022-08-19T13:12:46.270Z,9.25
2022-08-19T13:15:16.884Z,10.25
2022-08-19T13:17:47.863Z,9.00
2022-08-19T13:20:19.976Z,9.25
2022-08-19T13:22:49.356Z,10.25
2022-08-19T13:25:20.459Z,9.75
2022-08-19T13:27:50.761Z,8.00
2022-08-19T13:30:38.612Z,7.25
2022-08-19T13:33:13.090Z,7.75
2022-08-19T13:35:49.599Z,7.25
2022-08-19T13:38:23.677Z,7.75
2022-08-19T13:40:54.382Z,5.50
2022-08-19T13:43:25.111Z,7.50
2022-08-19T13:45:57.446Z,6.00
2022-08-19T13:48:28.397Z,10.00
2022-08-19T13:50:59.621Z,10.75
2022-08-19T13:53:28.142Z,9.00
2022-08-19T13:55:56.599Z,9.75
2022-08-19T13:58:25.288Z,10.75
2022-08-19T14:00:53.825Z,9.75
2022-08-19T14:03:22.394Z,10.00
2022-08-19T14:05:51.189Z,9.50
2022-08-19T14:08:21.256Z,9.25
2022-08-19T14:10:49.661Z,11.00
2022-08-19T14:13:22.805Z,11.00
2022-08-19T14:15:52.585Z,11.00
2022-08-19T14:18:21.524Z,11.25
2022-08-19T14:20:50.121Z,22.00
2022-08-19T14:23:21.007Z,10.00
2022-08-19T14:25:49.671Z,10.50
2022-08-19T14:28:18.132Z,12.00
2022-08-19T14:30:46.563Z,10.00
2022-08-19T14:33:15.309Z,9.50
2022-08-19T14:35:45.906Z,10.00
2022-08-19T14:38:18.731Z,10.00
2022-08-19T14:40:58.704Z,9.00
2022-08-19T14:43:27.173Z,11.00
2022-08-19T14:45:57.593Z,10.00
2022-08-19T14:48:29.104Z,10.75
2022-08-19T14:50:57.685Z,10.75
2022-08-19T14:53:26.643Z,11.25
2022-08-19T14:55:57.015Z,9.00
2022-08-19T14:58:29.673Z,8.50
2022-08-19T15:01:01.102Z,9.50
2022-08-19T15:03:32.553Z,8.00
2022-08-19T15:06:02.718Z,9.50
2022-08-19T15:08:33.152Z,9.00
2022-08-19T15:11:03.808Z,9.25
2022-08-19T15:13:32.332Z,9.00
2022-08-19T15:16:04.492Z,9.50
2022-08-19T15:18:33.591Z,15.75
2022-08-19T15:21:02.181Z,10.50
2022-08-19T15:23:30.917Z,10.50
2022-08-19T15:25:59.460Z,28.00
2022-08-19T15:28:29.421Z,14.00
2022-08-19T15:30:58.113Z,14.50
2022-08-19T15:33:26.873Z,13.25
2022-08-19T15:35:55.315Z,12.25
2022-08-19T15:38:25.874Z,12.50
2022-08-19T15:41:15.077Z,12.25
2022-08-19T15:43:45.377Z,9.50
2022-08-19T15:46:17.060Z,11.25
2022-08-19T15:48:54.729Z,9.75
2022-08-19T15:51:27.108Z,7.25
2022-08-19T15:53:57.071Z,8.25
2022-08-19T15:56:27.372Z,9.50
2022-08-19T15:59:15.255Z,14.50
2022-08-19T16:02:01.265Z,7.50
2022-08-19T16:04:58.949Z,7.25
2022-08-19T16:07:27.377Z,8.00
2022-08-19T16:09:56.051Z,7.00
2022-08-19T16:12:27.497Z,5.25
2022-08-19T16:14:57.953Z,4.75
2022-08-19T16:17:26.797Z,6.25
2022-08-19T16:19:55.627Z,7.25
2022-08-19T16:22:30.503Z,4.50
2022-08-19T16:24:59.348Z,6.75
2022-08-19T16:27:28.269Z,5.75
2022-08-19T16:29:58.157Z,4.75
2022-08-19T16:32:27.090Z,22.50
2022-08-19T16:34:55.719Z,3.75
2022-08-19T16:37:24.483Z,13.00
2022-08-19T16:39:53.728Z,7.00
2022-08-19T16:42:22.697Z,8.75
2022-08-19T16:44:51.550Z,7.75
2022-08-19T16:47:21.715Z,5.25
2022-08-19T16:49:54.129Z,7.50
2022-08-19T16:52:26.317Z,6.50
2022-08-19T16:54:55.742Z,6.75
2022-08-19T16:57:24.993Z,9.00
2022-08-19T16:59:53.706Z,13.75
2022-08-19T17:02:29.489Z,9.25
2022-08-19T17:04:59.308Z,9.25
2022-08-19T17:07:32.259Z,7.60
2022-08-19T17:10:03.706Z,6.80
2022-08-19T17:12:32.645Z,6.40
2022-08-19T17:15:02.992Z,6.40
2022-08-19T17:17:33.258Z,6.60
2022-08-19T17:20:02.658Z,6.60
2022-08-19T17:22:31.208Z,5.80
2022-08-19T17:24:59.889Z,6.00
2022-08-19T17:27:31.303Z,6.20
2022-08-19T17:30:02.906Z,6.40
2022-08-19T17:32:35.049Z,6.00
2022-08-19T17:35:05.123Z,10.40
2022-08-19T17:37:34.983Z,8.00
2022-08-19T17:40:06.717Z,6.20
2022-08-19T17:42:36.694Z,7.60
2022-08-19T17:45:05.958Z,6.60
2022-08-19T17:47:36.270Z,8.00
2022-08-19T17:50:07.137Z,8.00
2022-08-19T17:52:36.052Z,7.40
2022-08-19T17:55:04.987Z,11.80
2022-08-19T17:57:33.710Z,9.20
2022-08-19T18:00:02.121Z,10.00
2022-08-19T18:02:44.220Z,9.20
2022-08-19T18:05:13.077Z,9.20
2022-08-19T18:07:44.645Z,8.60
2022-08-19T18:10:13.689Z,9.40
2022-08-19T18:12:42.381Z,9.60
2022-08-19T18:15:11.786Z,8.80
2022-08-19T18:17:42.159Z,9.20
2022-08-19T18:20:13.522Z,10.50
2022-08-19T18:22:44.688Z,13.75
2022-08-19T18:25:17.491Z,9.20
2022-08-19T18:27:46.121Z,9.00
2022-08-19T18:30:15.779Z,11.00
2022-08-19T18:32:49.300Z,1.20
2022-08-19T18:35:20.434Z,9.80
2022-08-19T18:37:49.238Z,9.60
2022-08-19T18:40:38.339Z,11.00
2022-08-19T18:43:25.220Z,10.20
2022-08-19T18:46:11.545Z,10.00
2022-08-19T18:48:58.830Z,11.00
2022-08-19T18:51:29.876Z,11.00
2022-08-19T18:53:59.718Z,12.75
2022-08-19T18:56:32.303Z,14.75
2022-08-19T18:59:01.608Z,14.25
2022-08-19T19:01:34.765Z,7.00
2022-08-19T19:04:10.645Z,12.50
2022-08-19T19:06:42.638Z,14.25
2022-08-19T19:09:13.700Z,13.00
2022-08-19T19:11:45.112Z,14.75
2022-08-19T19:14:27.616Z,14.50
2022-08-19T19:17:06.492Z,21.75
2022-08-19T19:19:37.533Z,14.25
2022-08-19T19:22:06.317Z,12.00
2022-08-19T19:24:37.459Z,14.25
2022-08-19T19:27:08.432Z,13.00
2022-08-19T19:29:37.316Z,18.75
2022-08-19T19:32:07.129Z,14.25
2022-08-19T19:34:38.816Z,14.75
2022-08-19T19:37:07.421Z,13.75
2022-08-19T19:39:46.123Z,13.00
2022-08-19T19:42:20.730Z,12.75
2022-08-19T19:44:51.850Z,19.00
2022-08-19T19:47:24.527Z,13.75
2022-08-19T19:52:46.667Z,17.25
2022-08-19T19:55:18.434Z,18.50
2022-08-19T19:57:48.765Z,10.75
2022-08-19T20:00:19.528Z,12.00
2022-08-19T20:02:50.481Z,13.75
2022-08-19T20:05:22.189Z,13.00
2022-08-19T20:08:09.755Z,13.00
2022-08-19T20:10:38.932Z,13.75
2022-08-19T20:13:09.571Z,12.75
2022-08-19T20:15:42.542Z,12.25
2022-08-19T20:18:14.349Z,13.75
2022-08-19T20:20:45.206Z,11.00
2022-08-19T20:23:14.041Z,10.20
2022-08-19T20:25:44.176Z,10.50
2022-08-19T20:28:13.090Z,10.75
2022-08-19T20:30:46.533Z,10.80
2022-08-19T20:33:16.728Z,9.50
2022-08-19T20:35:47.280Z,13.25
2022-08-19T20:38:15.838Z,12.00
2022-08-19T20:40:44.465Z,11.00
2022-08-19T20:43:14.571Z,9.00
2022-08-19T20:45:43.158Z,10.00
2022-08-19T20:48:12.528Z,10.20
2022-08-19T20:50:41.463Z,8.60
2022-08-19T20:53:13.814Z,10.40
2022-08-19T20:55:45.503Z,4.00
2022-08-19T20:58:14.494Z,8.20
2022-08-19T21:00:45.906Z,7.60
2022-08-19T21:03:17.956Z,8.80
2022-08-19T21:05:47.469Z,8.00
2022-08-19T21:08:18.567Z,9.80
2022-08-19T21:10:47.875Z,8.40
2022-08-19T21:13:17.786Z,8.00
2022-08-19T21:15:46.425Z,8.40
2022-08-19T21:18:18.840Z,7.40
2022-08-19T21:20:48.926Z,6.60
2022-08-19T21:23:21.755Z,8.00
2022-08-19T21:25:54.460Z,9.20
2022-08-19T21:28:34.591Z,10.80
2022-08-19T21:31:10.342Z,8.00
2022-08-19T21:33:39.813Z,8.00
2022-08-19T21:36:09.654Z,10.20
2022-08-19T21:38:39.629Z,8.00
2022-08-19T21:41:08.708Z,7.40
2022-08-19T21:43:38.475Z,9.60
2022-08-19T21:46:08.959Z,10.40
2022-08-19T21:48:37.508Z,10.80
2022-08-19T21:51:06.486Z,12.00
2022-08-19T21:53:35.648Z,10.00
2022-08-19T21:56:06.751Z,8.60
2022-08-19T21:58:36.469Z,8.60
2022-08-19T22:01:08.012Z,9.20
2022-08-19T22:03:39.193Z,7.80
2022-08-19T22:06:09.414Z,10.20
2022-08-19T22:08:38.863Z,8.80
2022-08-19T22:11:08.984Z,10.00
2022-08-19T22:13:40.845Z,8.00
2022-08-19T22:16:10.736Z,8.40
2022-08-19T22:18:39.459Z,10.00
2022-08-19T22:21:11.582Z,8.00
2022-08-19T22:23:41.866Z,8.80
2022-08-19T22:26:12.761Z,10.40
2022-08-19T22:28:41.957Z,9.60
2022-08-19T22:31:11.650Z,9.60
2022-08-19T22:33:41.576Z,10.40
2022-08-19T22:36:10.187Z,9.60
2022-08-19T22:38:38.877Z,8.80
2022-08-19T22:41:08.118Z,8.00
2022-08-19T22:43:38.262Z,11.00
2022-08-19T22:46:17.191Z,11.20
2022-08-19T22:48:47.719Z,10.60
2022-08-19T22:51:36.964Z,10.20
2022-08-19T22:54:05.939Z,9.80
2022-08-19T22:56:34.839Z,10.20
2022-08-19T22:59:06.068Z,7.60
2022-08-19T23:01:35.932Z,10.20
2022-08-19T23:04:05.957Z,8.60
2022-08-19T23:06:37.183Z,8.80
2022-08-19T23:09:08.946Z,11.00
2022-08-19T23:11:41.779Z,9.80
2022-08-19T23:14:13.335Z,6.60
2022-08-19T23:16:42.570Z,10.00
2022-08-19T23:19:12.191Z,9.40
2022-08-19T23:21:40.846Z,8.80
2022-08-19T23:24:10.146Z,11.00
2022-08-19T23:26:59.692Z,9.00
2022-08-19T23:29:43.340Z,9.60
2022-08-19T23:32:13.134Z,9.20
2022-08-19T23:34:44.620Z,9.40
2022-08-19T23:37:13.619Z,9.40
2022-08-19T23:39:43.424Z,9.60
2022-08-19T23:42:14.192Z,9.80
2022-08-19T23:44:51.210Z,8.80
2022-08-19T23:47:21.885Z,8.80
2022-08-19T23:49:50.840Z,10.20
2022-08-19T23:52:19.485Z,11.20
2022-08-19T23:54:47.930Z,11.20
2022-08-19T23:57:16.703Z,10.20
2022-08-19T23:59:46.577Z,8.60
